GEFTB EGHH-EGJJ
Flight info
| Callsign | GEFTB |
|---|---|
| Flight time | N/A |
| Altitude | 8000 |
| Route | THRED Q41 ORTAC |
| Aircraft | DA42/L-SBDGRY/S |
Departure
| Time | 2026-04-28 20:14 |
|---|---|
| Airport | Bournemouth Airport (EGHH) |
Arrival
| Time | N/A |
|---|---|
| Airport | Jersey Airport (EGJJ) |
| Time | Latitude | Longitude | Altitude | Speed | Heading |
|---|---|---|---|---|---|
| 2026-04-28 20:14 | 50.66022 | -1.78419 | 3049 ft | 134 kts | 143° |
| 2026-04-28 20:14 | 50.65162 | -1.77868 | 3178 ft | 133 kts | 143° |
| 2026-04-28 20:14 | 50.64311 | -1.77315 | 3308 ft | 132 kts | 143° |
| 2026-04-28 20:14 | 50.63460 | -1.76755 | 3454 ft | 132 kts | 143° |
| 2026-04-28 20:15 | 50.62625 | -1.76180 | 3576 ft | 130 kts | 142° |
| 2026-04-28 20:15 | 50.61800 | -1.75593 | 3692 ft | 130 kts | 142° |
| 2026-04-28 20:15 | 50.60981 | -1.75005 | 3818 ft | 129 kts | 142° |
| 2026-04-28 20:15 | 50.60167 | -1.74419 | 3949 ft | 128 kts | 142° |
| 2026-04-28 20:16 | 50.59367 | -1.73849 | 4147 ft | 123 kts | 142° |
| 2026-04-28 20:16 | 50.58600 | -1.73313 | 4367 ft | 118 kts | 142° |
| 2026-04-28 20:16 | 50.57860 | -1.72792 | 4601 ft | 115 kts | 142° |
| 2026-04-28 20:16 | 50.57141 | -1.72276 | 4832 ft | 113 kts | 143° |
| 2026-04-28 20:17 | 50.56438 | -1.71753 | 5063 ft | 111 kts | 142° |
| 2026-04-28 20:17 | 50.55755 | -1.71233 | 5283 ft | 110 kts | 142° |
| 2026-04-28 20:17 | 50.55068 | -1.70705 | 5511 ft | 110 kts | 142° |
| 2026-04-28 20:17 | 50.54382 | -1.70175 | 5744 ft | 110 kts | 142° |
| 2026-04-28 20:18 | 50.53697 | -1.69630 | 5967 ft | 111 kts | 142° |
| 2026-04-28 20:18 | 50.53231 | -1.69260 | 6123 ft | 111 kts | 142° |
| 2026-04-28 20:18 | 50.52321 | -1.68528 | 6429 ft | 111 kts | 143° |
| 2026-04-28 20:18 | 50.51641 | -1.67969 | 6646 ft | 111 kts | 142° |
| 2026-04-28 20:19 | 50.50951 | -1.67397 | 6815 ft | 112 kts | 142° |
| 2026-04-28 20:19 | 50.50265 | -1.66845 | 6983 ft | 112 kts | 150° |
| 2026-04-28 20:19 | 50.49455 | -1.66917 | 7158 ft | 126 kts | 194° |
| 2026-04-28 20:19 | 50.48637 | -1.67521 | 7217 ft | 135 kts | 195° |
| 2026-04-28 20:20 | 50.47750 | -1.68141 | 7219 ft | 143 kts | 194° |
| 2026-04-28 20:20 | 50.46820 | -1.68785 | 7221 ft | 148 kts | 195° |
| 2026-04-28 20:20 | 50.45863 | -1.69440 | 7219 ft | 152 kts | 194° |
| 2026-04-28 20:20 | 50.44889 | -1.70116 | 7220 ft | 154 kts | 195° |
| 2026-04-28 20:21 | 50.43903 | -1.70775 | 7217 ft | 155 kts | 194° |
| 2026-04-28 20:21 | 50.42908 | -1.71433 | 7218 ft | 155 kts | 194° |
| 2026-04-28 20:21 | 50.41916 | -1.72112 | 7218 ft | 156 kts | 194° |
| 2026-04-28 20:21 | 50.40923 | -1.72794 | 7219 ft | 156 kts | 194° |
| 2026-04-28 20:22 | 50.39923 | -1.73490 | 7207 ft | 158 kts | 193° |
| 2026-04-28 20:22 | 50.38922 | -1.74216 | 7208 ft | 159 kts | 197° |
| 2026-04-28 20:22 | 50.37916 | -1.74901 | 7205 ft | 157 kts | 195° |
| 2026-04-28 20:22 | 50.36915 | -1.75577 | 7205 ft | 157 kts | 195° |
| 2026-04-28 20:23 | 50.35919 | -1.76292 | 7207 ft | 157 kts | 196° |
| 2026-04-28 20:23 | 50.34920 | -1.76975 | 7209 ft | 157 kts | 193° |
| 2026-04-28 20:23 | 50.33922 | -1.77659 | 7209 ft | 156 kts | 194° |
| 2026-04-28 20:23 | 50.33258 | -1.78095 | 7209 ft | 156 kts | 194° |
| 2026-04-28 20:24 | 50.31918 | -1.78963 | 7206 ft | 156 kts | 194° |
| 2026-04-28 20:24 | 50.30918 | -1.79632 | 7200 ft | 157 kts | 194° |
| 2026-04-28 20:24 | 50.29920 | -1.80333 | 7200 ft | 158 kts | 194° |
| 2026-04-28 20:24 | 50.28934 | -1.81020 | 7198 ft | 157 kts | 195° |
| 2026-04-28 20:25 | 50.27934 | -1.81695 | 7197 ft | 157 kts | 195° |
| 2026-04-28 20:25 | 50.26937 | -1.82382 | 7197 ft | 158 kts | 193° |
| 2026-04-28 20:25 | 50.25939 | -1.83096 | 7197 ft | 157 kts | 192° |
| 2026-04-28 20:25 | 50.24932 | -1.83755 | 7202 ft | 157 kts | 193° |
| 2026-04-28 20:26 | 50.23920 | -1.84372 | 7205 ft | 156 kts | 192° |
| 2026-04-28 20:26 | 50.22909 | -1.84971 | 7205 ft | 155 kts | 192° |
| 2026-04-28 20:26 | 50.21898 | -1.85559 | 7201 ft | 155 kts | 192° |
| 2026-04-28 20:26 | 50.20886 | -1.86149 | 7201 ft | 155 kts | 191° |
| 2026-04-28 20:27 | 50.19875 | -1.86748 | 7201 ft | 156 kts | 191° |
| 2026-04-28 20:27 | 50.18863 | -1.87356 | 7200 ft | 156 kts | 194° |
| 2026-04-28 20:27 | 50.17865 | -1.88036 | 7208 ft | 157 kts | 195° |
| 2026-04-28 20:27 | 50.16873 | -1.88754 | 7208 ft | 158 kts | 195° |
| 2026-04-28 20:28 | 50.15879 | -1.89472 | 7211 ft | 157 kts | 195° |
| 2026-04-28 20:28 | 50.14882 | -1.90175 | 7207 ft | 158 kts | 194° |
| 2026-04-28 20:28 | 50.13889 | -1.90916 | 7206 ft | 159 kts | 195° |
| 2026-04-28 20:28 | 50.12890 | -1.91636 | 7203 ft | 158 kts | 196° |
| 2026-04-28 20:29 | 50.11892 | -1.92346 | 7202 ft | 158 kts | 195° |
| 2026-04-28 20:29 | 50.10897 | -1.93076 | 7202 ft | 158 kts | 195° |
| 2026-04-28 20:29 | 50.09905 | -1.93821 | 7202 ft | 159 kts | 195° |
| 2026-04-28 20:29 | 50.08912 | -1.94579 | 7203 ft | 159 kts | 195° |
| 2026-04-28 20:30 | 50.07915 | -1.95326 | 7202 ft | 158 kts | 196° |
| 2026-04-28 20:30 | 50.07252 | -1.95803 | 7201 ft | 159 kts | 197° |
| 2026-04-28 20:30 | 50.06252 | -1.96513 | 7200 ft | 158 kts | 197° |
| 2026-04-28 20:30 | 50.05255 | -1.97246 | 7200 ft | 159 kts | 196° |
| 2026-04-28 20:31 | 50.04256 | -1.97978 | 7197 ft | 159 kts | 197° |
| 2026-04-28 20:31 | 50.03253 | -1.98674 | 7194 ft | 157 kts | 195° |
| 2026-04-28 20:31 | 50.02253 | -1.99354 | 7194 ft | 157 kts | 195° |
| 2026-04-28 20:31 | 50.01255 | -2.00041 | 7194 ft | 157 kts | 194° |
| 2026-04-28 20:32 | 50.00261 | -2.00756 | 7193 ft | 157 kts | 195° |
| 2026-04-28 20:32 | 49.99269 | -2.01490 | 7193 ft | 158 kts | 195° |
| 2026-04-28 20:32 | 49.98278 | -2.02223 | 7192 ft | 157 kts | 195° |
| 2026-04-28 20:32 | 49.98210 | -2.02270 | 7190 ft | 157 kts | 195° |
| 2026-04-28 20:33 | 49.97530 | -2.02747 | 7195 ft | 157 kts | 195° |
| 2026-04-28 20:34 | 49.96538 | -2.03464 | 7193 ft | 158 kts | 195° |
| 2026-04-28 20:34 | 49.95545 | -2.04203 | 7194 ft | 158 kts | 196° |
| 2026-04-28 20:34 | 49.94545 | -2.04922 | 7197 ft | 159 kts | 195° |
| 2026-04-28 20:34 | 49.93550 | -2.05671 | 7199 ft | 159 kts | 195° |
| 2026-04-28 20:35 | 49.92556 | -2.06415 | 7200 ft | 158 kts | 195° |
| 2026-04-28 20:35 | 49.91551 | -2.07116 | 7157 ft | 160 kts | 194° |
| 2026-04-28 20:35 | 49.90525 | -2.07853 | 7081 ft | 165 kts | 195° |
| 2026-04-28 20:35 | 49.89481 | -2.08596 | 7009 ft | 166 kts | 194° |
| 2026-04-28 20:36 | 49.88429 | -2.09336 | 6935 ft | 166 kts | 196° |
| 2026-04-28 20:36 | 49.87372 | -2.10049 | 6861 ft | 166 kts | 195° |
| 2026-04-28 20:36 | 49.86315 | -2.10757 | 6788 ft | 166 kts | 195° |
| 2026-04-28 20:36 | 49.85260 | -2.11493 | 6708 ft | 167 kts | 194° |
| 2026-04-28 20:37 | 49.84218 | -2.12237 | 6632 ft | 167 kts | 194° |
| 2026-04-28 20:37 | 49.83146 | -2.12977 | 6554 ft | 166 kts | 195° |
| 2026-04-28 20:37 | 49.82144 | -2.13689 | 6473 ft | 157 kts | 194° |
| 2026-04-28 20:37 | 49.81166 | -2.14443 | 6300 ft | 157 kts | 195° |
| 2026-04-28 20:38 | 49.80222 | -2.15338 | 6110 ft | 168 kts | 218° |
| 2026-04-28 20:38 | 49.79731 | -2.16994 | 5930 ft | 175 kts | 264° |
| 2026-04-28 20:38 | 49.79993 | -2.18777 | 5759 ft | 168 kts | 309° |
| 2026-04-28 20:38 | 49.80838 | -2.19825 | 5585 ft | 148 kts | 355° |
| 2026-04-28 20:39 | 49.81800 | -2.19884 | 5417 ft | 135 kts | 17° |
| 2026-04-28 20:39 | 49.82726 | -2.19704 | 5241 ft | 134 kts | 19° |
| 2026-04-28 20:39 | 49.83645 | -2.19497 | 5066 ft | 134 kts | 19° |
| 2026-04-28 20:39 | 49.84553 | -2.19249 | 4880 ft | 128 kts | 30° |
| 2026-04-28 20:40 | 49.85110 | -2.18355 | 4695 ft | 115 kts | 76° |
| 2026-04-28 20:40 | 49.84930 | -2.17176 | 4510 ft | 123 kts | 121° |
| 2026-04-28 20:40 | 49.84107 | -2.16606 | 4335 ft | 145 kts | 166° |
| 2026-04-28 20:40 | 49.83083 | -2.17065 | 4168 ft | 158 kts | 192° |
| 2026-04-28 20:41 | 49.82055 | -2.17633 | 3993 ft | 156 kts | 187° |
| 2026-04-28 20:41 | 49.81018 | -2.18121 | 3814 ft | 153 kts | 180° |
| 2026-04-28 20:41 | 49.79976 | -2.18372 | 3639 ft | 150 kts | 173° |
| 2026-04-28 20:41 | 49.78974 | -2.18269 | 3465 ft | 142 kts | 158° |
| 2026-04-28 20:42 | 49.78004 | -2.18015 | 3286 ft | 141 kts | 156° |
| 2026-04-28 20:42 | 49.77019 | -2.17840 | 3095 ft | 150 kts | 172° |
| 2026-04-28 20:42 | 49.75974 | -2.18129 | 2916 ft | 155 kts | 182° |
| 2026-04-28 20:42 | 49.74935 | -2.18584 | 2740 ft | 155 kts | 184° |
| 2026-04-28 20:43 | 49.73898 | -2.19070 | 2561 ft | 156 kts | 184° |
| 2026-04-28 20:43 | 49.72864 | -2.19569 | 2382 ft | 156 kts | 184° |
| 2026-04-28 20:43 | 49.71824 | -2.20068 | 2220 ft | 156 kts | 184° |
| 2026-04-28 20:43 | 49.70796 | -2.20563 | 2061 ft | 155 kts | 187° |
| 2026-04-28 20:44 | 49.70108 | -2.21838 | 2040 ft | 157 kts | 264° |
| 2026-04-28 20:44 | 49.70010 | -2.23522 | 1831 ft | 163 kts | 268° |
| 2026-04-28 20:44 | 49.69791 | -2.25216 | 1810 ft | 162 kts | 255° |
| 2026-04-28 20:44 | 49.69429 | -2.26869 | 1733 ft | 163 kts | 254° |
| 2026-04-28 20:45 | 49.69060 | -2.28538 | 1664 ft | 164 kts | 255° |
| 2026-04-28 20:45 | 49.68892 | -2.30181 | 1701 ft | 148 kts | 292° |
| 2026-04-28 20:45 | 49.69386 | -2.31359 | 1719 ft | 119 kts | 343° |
| 2026-04-28 20:45 | 49.70019 | -2.31446 | 1785 ft | 79 kts | 44° |
| 2026-04-28 20:46 | 49.70224 | -2.30755 | 1848 ft | 73 kts | 76° |
| 2026-04-28 20:46 | 49.70282 | -2.29945 | 1843 ft | 76 kts | 78° |
| 2026-04-28 20:46 | 49.70289 | -2.29087 | 1776 ft | 87 kts | 89° |
| 2026-04-28 20:46 | 49.70173 | -2.28168 | 1752 ft | 86 kts | 88° |
| 2026-04-28 20:47 | 49.70180 | -2.27301 | 1785 ft | 79 kts | 76° |
| 2026-04-28 20:47 | 49.70250 | -2.26448 | 1761 ft | 81 kts | 75° |
| 2026-04-28 20:47 | 49.70340 | -2.25577 | 1725 ft | 82 kts | 73° |
| 2026-04-28 20:47 | 49.70480 | -2.24717 | 1721 ft | 82 kts | 70° |
| 2026-04-28 20:48 | 49.70598 | -2.23895 | 1783 ft | 76 kts | 73° |
| 2026-04-28 20:48 | 49.70725 | -2.23142 | 1777 ft | 65 kts | 87° |
| 2026-04-28 20:48 | 49.70646 | -2.22488 | 1761 ft | 66 kts | 86° |
| 2026-04-28 20:48 | 49.70662 | -2.21774 | 1749 ft | 69 kts | 74° |
| 2026-04-28 20:49 | 49.70795 | -2.21072 | 1751 ft | 72 kts | 73° |
| 2026-04-28 20:49 | 49.70893 | -2.20291 | 1744 ft | 75 kts | 75° |
| 2026-04-28 20:49 | 49.71023 | -2.19517 | 1740 ft | 77 kts | 60° |
| 2026-04-28 20:49 | 49.71313 | -2.18791 | 1721 ft | 82 kts | 62° |
| 2026-04-28 20:50 | 49.71618 | -2.18009 | 1635 ft | 87 kts | 62° |
| 2026-04-28 20:50 | 49.71910 | -2.17157 | 1582 ft | 90 kts | 64° |
| 2026-04-28 20:50 | 49.72156 | -2.16276 | 1500 ft | 92 kts | 69° |
| 2026-04-28 20:50 | 49.72407 | -2.15355 | 1366 ft | 96 kts | 65° |
| 2026-04-28 20:51 | 49.72661 | -2.14455 | 1479 ft | 80 kts | 66° |
| 2026-04-28 20:51 | 49.72913 | -2.13706 | 1504 ft | 78 kts | 60° |
| 2026-04-28 20:51 | 49.73199 | -2.12985 | 1467 ft | 82 kts | 60° |
| 2026-04-28 20:51 | 49.73425 | -2.12493 | 1443 ft | 84 kts | 54° |
| 2026-04-28 20:52 | 49.73844 | -2.11468 | 1371 ft | 87 kts | 64° |
| 2026-04-28 20:52 | 49.74115 | -2.10637 | 1340 ft | 87 kts | 61° |
| 2026-04-28 20:52 | 49.74439 | -2.09817 | 1263 ft | 90 kts | 58° |
| 2026-04-28 20:52 | 49.74709 | -2.08963 | 1251 ft | 89 kts | 79° |
| 2026-04-28 20:53 | 49.73689 | -2.07738 | 1327 ft | 129 kts | 168° |
| 2026-04-28 20:53 | 49.72830 | -2.08432 | 1309 ft | 149 kts | 217° |
| 2026-04-28 20:53 | 49.72267 | -2.09764 | 1365 ft | 150 kts | 258° |
| 2026-04-28 20:54 | 49.71981 | -2.11329 | 1349 ft | 152 kts | 253° |
| 2026-04-28 20:54 | 49.71730 | -2.12762 | 1412 ft | 131 kts | 261° |
| 2026-04-28 20:54 | 49.71552 | -2.14117 | 1367 ft | 128 kts | 266° |
| 2026-04-28 20:54 | 49.71427 | -2.15485 | 1222 ft | 132 kts | 269° |
| 2026-04-28 20:55 | 49.71267 | -2.16887 | 1026 ft | 134 kts | 268° |
| 2026-04-28 20:55 | 49.71080 | -2.18261 | 784 ft | 127 kts | 263° |
| 2026-04-28 20:55 | 49.70900 | -2.19476 | 578 ft | 106 kts | 266° |
| 2026-04-28 20:55 | 49.70773 | -2.20581 | 347 ft | 99 kts | 269° |
| 2026-04-28 20:56 | 49.70695 | -2.21512 | 290 ft | 70 kts | 266° |
| 2026-04-28 20:56 | 49.70606 | -2.22003 | 287 ft | 15 kts | 258° |
| 2026-04-28 20:56 | 49.70605 | -2.22016 | 287 ft | 0 kts | 271° |